Terminal Aerodrome Forecast
Issued by NWS Louisville, KY

Home | Current Version | Previous Version | Text Only | Print | Product List | Glossary On
Versions: 1 2 3 4 5 6 7 8 9 10 11 12 13 14 15 16 17 18 19
000
FTUS43 KLMK 271100 RRA
TAFSDF
TAF
KSDF 271141Z 2712/2818 25004KT 6SM HZ FEW030 BKN070
     FM271400 26004KT 6SM -SHRA VCSH BKN040
     FM272300 VRB05KT 6SM HZ FEW050 SCT200=

USA.gov is the U.S. government's official web portal to all federal, state and local government web resources and services.